createdAt,value
2023-05-16T00:16:16.865Z,895
2023-05-16T00:36:16.992Z,895
2023-05-16T00:56:16.937Z,899
2023-05-16T01:16:17.026Z,902
2023-05-16T01:36:17.021Z,908
2023-05-16T01:56:17.113Z,926
2023-05-16T02:16:17.142Z,918
2023-05-16T02:36:17.190Z,922
2023-05-16T02:56:17.233Z,933
2023-05-16T03:56:17.418Z,946
2023-05-16T04:16:17.529Z,936
2023-05-16T04:36:17.566Z,938
2023-05-16T04:56:17.661Z,931
2023-05-16T05:16:24.636Z,938
2023-05-16T05:36:17.699Z,936
2023-05-16T05:56:17.738Z,942
2023-05-16T06:36:17.941Z,948
2023-05-16T07:16:18.006Z,946
2023-05-16T07:36:18.094Z,946
2023-05-16T07:56:18.076Z,942
2023-05-16T08:16:18.184Z,935
2023-05-16T08:36:18.200Z,933
2023-05-16T08:56:25.283Z,912
2023-05-16T10:16:18.521Z,903
2023-05-16T10:56:18.505Z,902
2023-05-16T11:16:18.587Z,900
2023-05-16T11:36:18.634Z,903
2023-05-16T11:56:18.759Z,906
2023-05-16T12:16:18.724Z,898
2023-05-16T12:36:18.746Z,897
2023-05-16T12:56:18.811Z,902
2023-05-16T13:56:18.943Z,899
2023-05-16T14:16:26.050Z,887
2023-05-16T15:56:19.334Z,882
2023-05-16T16:36:19.349Z,887
2023-05-16T17:16:26.439Z,888
2023-05-16T17:36:26.482Z,883
2023-05-16T18:16:19.605Z,890
2023-05-16T18:36:19.638Z,885
2023-05-16T18:56:19.676Z,886
2023-05-16T19:16:19.847Z,885
2023-05-16T19:36:19.782Z,885
2023-05-16T19:56:19.827Z,887
2023-05-16T20:16:19.885Z,891
2023-05-16T20:36:19.934Z,885
2023-05-16T20:56:19.974Z,885
2023-05-16T21:16:20.051Z,888
2023-05-16T21:56:20.156Z,890
2023-05-16T22:56:20.357Z,884
2023-05-16T23:16:20.380Z,887
2023-05-16T23:36:20.433Z,888
2023-05-16T23:56:20.480Z,886
